sensor_id;sensor_type;location;lat;lon;timestamp;P1;durP1;ratioP1;P2;durP2;ratioP2
73507;SDS011;61749;55.002;73.386;2022-08-19T00:01:45;1.20;;;0.70;;
73507;SDS011;61749;55.002;73.386;2022-08-19T00:04:19;1.30;;;0.68;;
73507;SDS011;61749;55.002;73.386;2022-08-19T00:06:46;1.67;;;0.60;;
73507;SDS011;61749;55.002;73.386;2022-08-19T00:09:18;0.80;;;0.40;;
73507;SDS011;61749;55.002;73.386;2022-08-19T00:11:44;2.17;;;0.55;;
73507;SDS011;61749;55.002;73.386;2022-08-19T00:14:18;6.08;;;0.70;;
73507;SDS011;61749;55.002;73.386;2022-08-19T00:16:44;3.20;;;0.73;;
73507;SDS011;61749;55.002;73.386;2022-08-19T00:19:17;8.27;;;0.55;;
73507;SDS011;61749;55.002;73.386;2022-08-19T00:21:43;1.38;;;0.60;;
73507;SDS011;61749;55.002;73.386;2022-08-19T00:24:17;3.44;;;0.54;;
73507;SDS011;61749;55.002;73.386;2022-08-19T00:26:44;2.33;;;0.60;;
73507;SDS011;61749;55.002;73.386;2022-08-19T00:29:18;2.60;;;0.60;;
73507;SDS011;61749;55.002;73.386;2022-08-19T00:32:04;3.67;;;0.70;;
73507;SDS011;61749;55.002;73.386;2022-08-19T00:34:30;0.25;;;0.15;;
73507;SDS011;61749;55.002;73.386;2022-08-19T00:36:56;2.33;;;0.57;;
73507;SDS011;61749;55.002;73.386;2022-08-19T00:39:23;1.67;;;0.55;;
73507;SDS011;61749;55.002;73.386;2022-08-19T00:41:49;2.53;;;0.50;;
73507;SDS011;61749;55.002;73.386;2022-08-19T00:44:17;0.88;;;0.43;;
73507;SDS011;61749;55.002;73.386;2022-08-19T00:46:46;0.90;;;0.53;;
73507;SDS011;61749;55.002;73.386;2022-08-19T00:51:40;0.90;;;0.50;;
73507;SDS011;61749;55.002;73.386;2022-08-19T00:54:06;0.88;;;0.50;;
73507;SDS011;61749;55.002;73.386;2022-08-19T00:56:32;0.85;;;0.40;;
73507;SDS011;61749;55.002;73.386;2022-08-19T00:59:09;0.60;;;0.32;;
73507;SDS011;61749;55.002;73.386;2022-08-19T01:01:41;0.68;;;0.40;;
73507;SDS011;61749;55.002;73.386;2022-08-19T01:04:12;1.15;;;0.50;;
73507;SDS011;61749;55.002;73.386;2022-08-19T01:06:48;1.15;;;0.40;;
73507;SDS011;61749;55.002;73.386;2022-08-19T01:09:15;3.00;;;0.63;;
73507;SDS011;61749;55.002;73.386;2022-08-19T01:11:41;1.23;;;0.40;;
73507;SDS011;61749;55.002;73.386;2022-08-19T01:14:10;1.27;;;0.50;;
73507;SDS011;61749;55.002;73.386;2022-08-19T01:16:37;3.15;;;0.60;;
73507;SDS011;61749;55.002;73.386;2022-08-19T01:19:09;1.17;;;0.38;;
73507;SDS011;61749;55.002;73.386;2022-08-19T01:21:40;1.83;;;0.50;;
73507;SDS011;61749;55.002;73.386;2022-08-19T01:24:07;1.65;;;0.57;;
73507;SDS011;61749;55.002;73.386;2022-08-19T01:26:38;8.48;;;0.60;;
73507;SDS011;61749;55.002;73.386;2022-08-19T01:29:04;0.95;;;0.40;;
73507;SDS011;61749;55.002;73.386;2022-08-19T01:31:33;2.55;;;0.57;;
73507;SDS011;61749;55.002;73.386;2022-08-19T01:34:00;2.97;;;0.55;;
73507;SDS011;61749;55.002;73.386;2022-08-19T01:36:32;4.93;;;0.55;;
73507;SDS011;61749;55.002;73.386;2022-08-19T01:38:59;4.30;;;0.50;;
73507;SDS011;61749;55.002;73.386;2022-08-19T01:41:25;1.15;;;0.40;;
73507;SDS011;61749;55.002;73.386;2022-08-19T01:43:56;1.92;;;0.60;;
73507;SDS011;61749;55.002;73.386;2022-08-19T01:46:26;4.15;;;0.50;;
73507;SDS011;61749;55.002;73.386;2022-08-19T01:48:52;0.82;;;0.40;;
73507;SDS011;61749;55.002;73.386;2022-08-19T01:51:22;1.50;;;0.50;;
73507;SDS011;61749;55.002;73.386;2022-08-19T01:53:49;1.92;;;0.63;;
73507;SDS011;61749;55.002;73.386;2022-08-19T01:56:17;2.27;;;0.57;;
73507;SDS011;61749;55.002;73.386;2022-08-19T01:58:45;1.52;;;0.45;;
73507;SDS011;61749;55.002;73.386;2022-08-19T02:01:13;0.90;;;0.45;;
73507;SDS011;61749;55.002;73.386;2022-08-19T02:03:39;1.05;;;0.40;;
73507;SDS011;61749;55.002;73.386;2022-08-19T02:06:05;2.13;;;0.47;;
73507;SDS011;61749;55.002;73.386;2022-08-19T02:08:37;1.67;;;0.47;;
73507;SDS011;61749;55.002;73.386;2022-08-19T02:11:06;0.95;;;0.50;;
73507;SDS011;61749;55.002;73.386;2022-08-19T02:13:33;3.60;;;0.70;;
73507;SDS011;61749;55.002;73.386;2022-08-19T02:15:59;4.40;;;0.60;;
73507;SDS011;61749;55.002;73.386;2022-08-19T02:18:25;2.58;;;0.50;;
73507;SDS011;61749;55.002;73.386;2022-08-19T02:21:01;2.47;;;0.60;;
73507;SDS011;61749;55.002;73.386;2022-08-19T02:23:37;2.25;;;0.50;;
73507;SDS011;61749;55.002;73.386;2022-08-19T02:26:04;2.05;;;0.50;;
73507;SDS011;61749;55.002;73.386;2022-08-19T02:28:35;2.30;;;0.70;;
73507;SDS011;61749;55.002;73.386;2022-08-19T02:31:14;1.20;;;0.60;;
73507;SDS011;61749;55.002;73.386;2022-08-19T02:33:43;1.70;;;0.60;;
73507;SDS011;61749;55.002;73.386;2022-08-19T02:36:10;1.70;;;0.55;;
73507;SDS011;61749;55.002;73.386;2022-08-19T02:38:36;0.90;;;0.40;;
73507;SDS011;61749;55.002;73.386;2022-08-19T02:41:09;3.47;;;0.57;;
73507;SDS011;61749;55.002;73.386;2022-08-19T02:43:36;2.35;;;0.47;;
73507;SDS011;61749;55.002;73.386;2022-08-19T02:46:17;4.07;;;0.50;;
73507;SDS011;61749;55.002;73.386;2022-08-19T02:48:58;2.55;;;0.50;;
73507;SDS011;61749;55.002;73.386;2022-08-19T02:51:25;4.07;;;0.55;;
73507;SDS011;61749;55.002;73.386;2022-08-19T02:53:52;2.25;;;0.60;;
73507;SDS011;61749;55.002;73.386;2022-08-19T02:56:18;2.08;;;0.60;;
73507;SDS011;61749;55.002;73.386;2022-08-19T02:58:45;1.33;;;0.50;;
73507;SDS011;61749;55.002;73.386;2022-08-19T03:01:18;1.13;;;0.57;;
73507;SDS011;61749;55.002;73.386;2022-08-19T03:03:45;1.83;;;0.70;;
73507;SDS011;61749;55.002;73.386;2022-08-19T03:06:12;1.65;;;0.75;;
73507;SDS011;61749;55.002;73.386;2022-08-19T03:08:46;1.90;;;0.68;;
73507;SDS011;61749;55.002;73.386;2022-08-19T03:11:14;1.45;;;0.60;;
73507;SDS011;61749;55.002;73.386;2022-08-19T03:13:40;1.83;;;0.70;;
73507;SDS011;61749;55.002;73.386;2022-08-19T03:16:06;3.17;;;0.60;;
73507;SDS011;61749;55.002;73.386;2022-08-19T03:18:42;2.03;;;0.60;;
73507;SDS011;61749;55.002;73.386;2022-08-19T03:21:17;5.30;;;0.63;;
73507;SDS011;61749;55.002;73.386;2022-08-19T03:23:43;3.42;;;0.68;;
73507;SDS011;61749;55.002;73.386;2022-08-19T03:26:19;1.63;;;0.75;;
73507;SDS011;61749;55.002;73.386;2022-08-19T03:28:46;1.40;;;0.70;;
73507;SDS011;61749;55.002;73.386;2022-08-19T03:31:17;1.50;;;0.70;;
73507;SDS011;61749;55.002;73.386;2022-08-19T03:33:49;1.33;;;0.60;;
73507;SDS011;61749;55.002;73.386;2022-08-19T03:36:16;2.00;;;0.80;;
73507;SDS011;61749;55.002;73.386;2022-08-19T03:38:47;1.85;;;0.90;;
73507;SDS011;61749;55.002;73.386;2022-08-19T03:41:15;2.72;;;0.82;;
73507;SDS011;61749;55.002;73.386;2022-08-19T03:43:41;2.00;;;0.77;;
73507;SDS011;61749;55.002;73.386;2022-08-19T03:46:09;1.80;;;0.73;;
73507;SDS011;61749;55.002;73.386;2022-08-19T03:48:41;1.73;;;0.70;;
73507;SDS011;61749;55.002;73.386;2022-08-19T03:51:08;2.33;;;0.70;;
73507;SDS011;61749;55.002;73.386;2022-08-19T03:53:40;4.05;;;0.98;;
73507;SDS011;61749;55.002;73.386;2022-08-19T03:56:07;1.45;;;0.80;;
73507;SDS011;61749;55.002;73.386;2022-08-19T03:58:33;1.20;;;0.70;;
73507;SDS011;61749;55.002;73.386;2022-08-19T04:00:59;3.45;;;1.00;;
73507;SDS011;61749;55.002;73.386;2022-08-19T04:03:25;3.45;;;0.95;;
73507;SDS011;61749;55.002;73.386;2022-08-19T04:06:12;1.92;;;0.80;;
73507;SDS011;61749;55.002;73.386;2022-08-19T04:08:39;5.15;;;0.95;;
73507;SDS011;61749;55.002;73.386;2022-08-19T04:11:06;3.13;;;0.80;;
73507;SDS011;61749;55.002;73.386;2022-08-19T04:13:33;2.03;;;0.70;;
73507;SDS011;61749;55.002;73.386;2022-08-19T04:15:59;9.45;;;1.00;;
73507;SDS011;61749;55.002;73.386;2022-08-19T04:18:25;1.75;;;0.80;;
73507;SDS011;61749;55.002;73.386;2022-08-19T04:20:51;3.13;;;1.02;;
73507;SDS011;61749;55.002;73.386;2022-08-19T04:23:17;5.60;;;1.00;;
73507;SDS011;61749;55.002;73.386;2022-08-19T04:25:44;7.18;;;1.15;;
73507;SDS011;61749;55.002;73.386;2022-08-19T04:28:11;3.67;;;1.17;;
73507;SDS011;61749;55.002;73.386;2022-08-19T04:33:17;5.43;;;1.08;;
73507;SDS011;61749;55.002;73.386;2022-08-19T04:35:45;4.85;;;1.02;;
73507;SDS011;61749;55.002;73.386;2022-08-19T04:38:11;3.60;;;1.10;;
73507;SDS011;61749;55.002;73.386;2022-08-19T04:40:41;7.53;;;1.35;;
73507;SDS011;61749;55.002;73.386;2022-08-19T04:43:31;6.32;;;1.10;;
73507;SDS011;61749;55.002;73.386;2022-08-19T04:45:57;3.15;;;1.13;;
73507;SDS011;61749;55.002;73.386;2022-08-19T04:48:28;5.68;;;1.10;;
73507;SDS011;61749;55.002;73.386;2022-08-19T04:51:08;9.80;;;1.30;;
73507;SDS011;61749;55.002;73.386;2022-08-19T04:53:42;11.35;;;1.13;;
73507;SDS011;61749;55.002;73.386;2022-08-19T04:56:12;10.75;;;1.25;;
73507;SDS011;61749;55.002;73.386;2022-08-19T04:58:39;4.25;;;1.10;;
73507;SDS011;61749;55.002;73.386;2022-08-19T05:01:08;5.40;;;1.33;;
73507;SDS011;61749;55.002;73.386;2022-08-19T05:03:35;11.35;;;1.35;;
73507;SDS011;61749;55.002;73.386;2022-08-19T05:06:09;23.77;;;1.50;;
73507;SDS011;61749;55.002;73.386;2022-08-19T05:08:37;12.70;;;1.50;;
73507;SDS011;61749;55.002;73.386;2022-08-19T05:11:08;12.27;;;2.22;;
73507;SDS011;61749;55.002;73.386;2022-08-19T05:13:34;11.15;;;2.60;;
73507;SDS011;61749;55.002;73.386;2022-08-19T05:16:02;20.08;;;2.85;;
73507;SDS011;61749;55.002;73.386;2022-08-19T05:18:33;19.23;;;2.85;;
73507;SDS011;61749;55.002;73.386;2022-08-19T05:21:24;15.90;;;2.30;;
73507;SDS011;61749;55.002;73.386;2022-08-19T05:24:25;17.02;;;2.38;;
73507;SDS011;61749;55.002;73.386;2022-08-19T05:27:02;22.36;;;2.70;;
73507;SDS011;61749;55.002;73.386;2022-08-19T05:29:30;11.15;;;2.47;;
73507;SDS011;61749;55.002;73.386;2022-08-19T05:31:57;13.23;;;2.13;;
73507;SDS011;61749;55.002;73.386;2022-08-19T05:34:24;9.70;;;2.50;;
73507;SDS011;61749;55.002;73.386;2022-08-19T05:36:58;15.38;;;1.95;;
73507;SDS011;61749;55.002;73.386;2022-08-19T05:39:31;23.80;;;2.10;;
73507;SDS011;61749;55.002;73.386;2022-08-19T05:41:58;16.60;;;2.15;;
73507;SDS011;61749;55.002;73.386;2022-08-19T05:44:25;17.58;;;2.38;;
73507;SDS011;61749;55.002;73.386;2022-08-19T05:46:52;14.02;;;2.10;;
73507;SDS011;61749;55.002;73.386;2022-08-19T05:49:21;14.05;;;2.45;;
73507;SDS011;61749;55.002;73.386;2022-08-19T05:51:48;14.30;;;1.92;;
73507;SDS011;61749;55.002;73.386;2022-08-19T05:54:24;11.88;;;2.13;;
73507;SDS011;61749;55.002;73.386;2022-08-19T05:56:51;14.70;;;1.92;;
73507;SDS011;61749;55.002;73.386;2022-08-19T05:59:20;18.73;;;2.00;;
73507;SDS011;61749;55.002;73.386;2022-08-19T06:01:56;8.05;;;1.40;;
73507;SDS011;61749;55.002;73.386;2022-08-19T06:04:23;9.90;;;1.63;;
73507;SDS011;61749;55.002;73.386;2022-08-19T06:06:50;10.02;;;2.33;;
73507;SDS011;61749;55.002;73.386;2022-08-19T06:09:20;11.18;;;1.77;;
73507;SDS011;61749;55.002;73.386;2022-08-19T06:11:52;6.40;;;1.70;;
73507;SDS011;61749;55.002;73.386;2022-08-19T06:14:20;7.07;;;1.70;;
73507;SDS011;61749;55.002;73.386;2022-08-19T06:16:47;9.27;;;1.48;;
73507;SDS011;61749;55.002;73.386;2022-08-19T06:19:20;5.57;;;1.35;;
73507;SDS011;61749;55.002;73.386;2022-08-19T06:21:55;7.28;;;1.30;;
73507;SDS011;61749;55.002;73.386;2022-08-19T06:24:32;7.18;;;1.65;;
73507;SDS011;61749;55.002;73.386;2022-08-19T06:26:58;6.80;;;1.45;;
73507;SDS011;61749;55.002;73.386;2022-08-19T06:29:25;7.82;;;1.70;;
73507;SDS011;61749;55.002;73.386;2022-08-19T06:31:55;8.13;;;1.40;;
73507;SDS011;61749;55.002;73.386;2022-08-19T06:34:30;5.90;;;1.55;;
73507;SDS011;61749;55.002;73.386;2022-08-19T06:43:16;4.63;;;1.40;;
73507;SDS011;61749;55.002;73.386;2022-08-19T06:45:42;4.05;;;1.10;;
73507;SDS011;61749;55.002;73.386;2022-08-19T06:48:08;3.63;;;1.20;;
73507;SDS011;61749;55.002;73.386;2022-08-19T06:50:34;3.60;;;1.00;;
73507;SDS011;61749;55.002;73.386;2022-08-19T06:52:59;4.88;;;1.10;;
73507;SDS011;61749;55.002;73.386;2022-08-19T06:55:25;8.63;;;1.05;;
73507;SDS011;61749;55.002;73.386;2022-08-19T06:57:54;4.08;;;1.20;;
73507;SDS011;61749;55.002;73.386;2022-08-19T07:00:24;4.30;;;0.93;;
73507;SDS011;61749;55.002;73.386;2022-08-19T07:02:53;5.75;;;1.42;;
73507;SDS011;61749;55.002;73.386;2022-08-19T07:05:29;6.57;;;1.02;;
73507;SDS011;61749;55.002;73.386;2022-08-19T07:07:58;6.41;;;1.07;;
73507;SDS011;61749;55.002;73.386;2022-08-19T07:10:24;4.88;;;1.08;;
73507;SDS011;61749;55.002;73.386;2022-08-19T07:13:00;4.30;;;1.10;;
73507;SDS011;61749;55.002;73.386;2022-08-19T07:15:26;5.65;;;1.50;;
73507;SDS011;61749;55.002;73.386;2022-08-19T07:18:03;2.80;;;1.00;;
73507;SDS011;61749;55.002;73.386;2022-08-19T07:20:30;3.10;;;0.90;;
73507;SDS011;61749;55.002;73.386;2022-08-19T07:22:57;5.45;;;0.88;;
73507;SDS011;61749;55.002;73.386;2022-08-19T07:25:23;3.63;;;0.80;;
73507;SDS011;61749;55.002;73.386;2022-08-19T07:27:49;6.82;;;1.15;;
73507;SDS011;61749;55.002;73.386;2022-08-19T07:30:15;3.33;;;1.00;;
73507;SDS011;61749;55.002;73.386;2022-08-19T07:32:46;8.63;;;1.02;;
73507;SDS011;61749;55.002;73.386;2022-08-19T07:35:22;3.47;;;1.10;;
73507;SDS011;61749;55.002;73.386;2022-08-19T07:37:49;6.97;;;1.00;;
73507;SDS011;61749;55.002;73.386;2022-08-19T07:40:25;4.38;;;1.10;;
73507;SDS011;61749;55.002;73.386;2022-08-19T07:42:57;4.40;;;1.00;;
73507;SDS011;61749;55.002;73.386;2022-08-19T07:47:54;4.85;;;1.13;;
73507;SDS011;61749;55.002;73.386;2022-08-19T07:50:20;2.67;;;0.80;;
73507;SDS011;61749;55.002;73.386;2022-08-19T07:52:56;1.75;;;0.88;;
73507;SDS011;61749;55.002;73.386;2022-08-19T07:55:23;3.20;;;1.02;;
73507;SDS011;61749;55.002;73.386;2022-08-19T07:58:00;3.72;;;1.00;;
73507;SDS011;61749;55.002;73.386;2022-08-19T08:00:25;2.47;;;0.98;;
73507;SDS011;61749;55.002;73.386;2022-08-19T08:02:52;10.20;;;1.13;;
73507;SDS011;61749;55.002;73.386;2022-08-19T08:05:23;3.28;;;0.90;;
73507;SDS011;61749;55.002;73.386;2022-08-19T08:08:13;4.40;;;1.05;;
73507;SDS011;61749;55.002;73.386;2022-08-19T08:11:07;3.33;;;0.90;;
73507;SDS011;61749;55.002;73.386;2022-08-19T08:13:33;5.30;;;0.90;;
73507;SDS011;61749;55.002;73.386;2022-08-19T08:16:02;4.07;;;0.98;;
73507;SDS011;61749;55.002;73.386;2022-08-19T08:18:33;3.80;;;1.13;;
73507;SDS011;61749;55.002;73.386;2022-08-19T08:21:07;9.85;;;1.23;;
73507;SDS011;61749;55.002;73.386;2022-08-19T08:23:32;4.65;;;1.17;;
73507;SDS011;61749;55.002;73.386;2022-08-19T08:25:59;18.08;;;1.27;;
73507;SDS011;61749;55.002;73.386;2022-08-19T08:28:25;8.07;;;1.02;;
73507;SDS011;61749;55.002;73.386;2022-08-19T08:30:52;4.50;;;1.20;;
73507;SDS011;61749;55.002;73.386;2022-08-19T08:33:25;5.25;;;1.00;;
73507;SDS011;61749;55.002;73.386;2022-08-19T08:35:51;4.13;;;1.00;;
73507;SDS011;61749;55.002;73.386;2022-08-19T08:38:27;2.80;;;1.27;;
73507;SDS011;61749;55.002;73.386;2022-08-19T08:41:01;2.90;;;1.05;;
73507;SDS011;61749;55.002;73.386;2022-08-19T08:43:37;3.95;;;1.20;;
73507;SDS011;61749;55.002;73.386;2022-08-19T08:46:05;4.80;;;1.23;;
73507;SDS011;61749;55.002;73.386;2022-08-19T08:48:36;4.30;;;1.20;;
73507;SDS011;61749;55.002;73.386;2022-08-19T08:51:05;33.33;;;2.17;;
73507;SDS011;61749;55.002;73.386;2022-08-19T08:53:37;28.15;;;2.17;;
73507;SDS011;61749;55.002;73.386;2022-08-19T08:56:06;5.38;;;1.52;;
73507;SDS011;61749;55.002;73.386;2022-08-19T08:58:45;7.80;;;1.50;;
73507;SDS011;61749;55.002;73.386;2022-08-19T09:01:16;5.18;;;1.60;;
73507;SDS011;61749;55.002;73.386;2022-08-19T09:03:42;5.10;;;1.00;;
73507;SDS011;61749;55.002;73.386;2022-08-19T09:06:31;6.43;;;1.60;;
73507;SDS011;61749;55.002;73.386;2022-08-19T09:11:50;5.75;;;1.38;;
73507;SDS011;61749;55.002;73.386;2022-08-19T09:14:29;4.97;;;1.33;;
73507;SDS011;61749;55.002;73.386;2022-08-19T09:17:02;6.38;;;1.63;;
73507;SDS011;61749;55.002;73.386;2022-08-19T09:19:34;3.70;;;1.40;;
73507;SDS011;61749;55.002;73.386;2022-08-19T09:22:00;6.25;;;1.70;;
73507;SDS011;61749;55.002;73.386;2022-08-19T09:24:26;9.10;;;1.63;;
73507;SDS011;61749;55.002;73.386;2022-08-19T09:26:51;5.18;;;1.77;;
73507;SDS011;61749;55.002;73.386;2022-08-19T09:29:17;11.90;;;1.95;;
73507;SDS011;61749;55.002;73.386;2022-08-19T09:31:43;17.42;;;2.15;;
73507;SDS011;61749;55.002;73.386;2022-08-19T09:34:09;10.20;;;2.00;;
73507;SDS011;61749;55.002;73.386;2022-08-19T09:36:34;4.90;;;1.75;;
73507;SDS011;61749;55.002;73.386;2022-08-19T09:39:05;6.78;;;1.85;;
73507;SDS011;61749;55.002;73.386;2022-08-19T09:41:37;3.08;;;1.33;;
73507;SDS011;61749;55.002;73.386;2022-08-19T09:44:04;6.97;;;2.00;;
73507;SDS011;61749;55.002;73.386;2022-08-19T09:46:30;5.43;;;2.00;;
73507;SDS011;61749;55.002;73.386;2022-08-19T09:48:57;7.47;;;2.15;;
73507;SDS011;61749;55.002;73.386;2022-08-19T09:51:24;4.03;;;1.85;;
73507;SDS011;61749;55.002;73.386;2022-08-19T09:53:58;8.48;;;2.20;;
73507;SDS011;61749;55.002;73.386;2022-08-19T09:56:30;6.82;;;1.98;;
73507;SDS011;61749;55.002;73.386;2022-08-19T09:59:06;8.40;;;2.15;;
73507;SDS011;61749;55.002;73.386;2022-08-19T10:01:32;9.43;;;1.92;;
73507;SDS011;61749;55.002;73.386;2022-08-19T10:03:58;4.68;;;1.83;;
73507;SDS011;61749;55.002;73.386;2022-08-19T10:06:25;7.57;;;2.47;;
73507;SDS011;61749;55.002;73.386;2022-08-19T10:08:55;4.80;;;2.20;;
73507;SDS011;61749;55.002;73.386;2022-08-19T10:11:27;5.47;;;2.10;;
73507;SDS011;61749;55.002;73.386;2022-08-19T10:14:04;4.53;;;2.10;;
73507;SDS011;61749;55.002;73.386;2022-08-19T10:16:32;9.80;;;2.30;;
73507;SDS011;61749;55.002;73.386;2022-08-19T10:18:58;6.15;;;1.83;;
73507;SDS011;61749;55.002;73.386;2022-08-19T10:21:26;5.90;;;2.20;;
73507;SDS011;61749;55.002;73.386;2022-08-19T10:23:55;6.72;;;2.05;;
73507;SDS011;61749;55.002;73.386;2022-08-19T10:26:29;5.18;;;2.10;;
73507;SDS011;61749;55.002;73.386;2022-08-19T10:28:55;6.68;;;2.10;;
73507;SDS011;61749;55.002;73.386;2022-08-19T10:31:33;7.28;;;2.08;;
73507;SDS011;61749;55.002;73.386;2022-08-19T10:34:00;3.25;;;1.80;;
73507;SDS011;61749;55.002;73.386;2022-08-19T10:36:36;4.90;;;1.95;;
73507;SDS011;61749;55.002;73.386;2022-08-19T10:39:07;3.38;;;1.73;;
73507;SDS011;61749;55.002;73.386;2022-08-19T10:41:35;3.00;;;1.60;;
73507;SDS011;61749;55.002;73.386;2022-08-19T10:44:07;4.10;;;1.83;;
73507;SDS011;61749;55.002;73.386;2022-08-19T10:46:34;6.05;;;1.92;;
73507;SDS011;61749;55.002;73.386;2022-08-19T10:49:01;4.35;;;1.88;;
73507;SDS011;61749;55.002;73.386;2022-08-19T10:51:27;7.20;;;1.60;;
73507;SDS011;61749;55.002;73.386;2022-08-19T10:54:22;4.65;;;1.42;;
73507;SDS011;61749;55.002;73.386;2022-08-19T10:56:48;3.55;;;1.60;;
73507;SDS011;61749;55.002;73.386;2022-08-19T10:59:21;3.63;;;1.60;;
73507;SDS011;61749;55.002;73.386;2022-08-19T11:01:49;5.45;;;1.77;;
73507;SDS011;61749;55.002;73.386;2022-08-19T11:04:20;3.17;;;1.60;;
73507;SDS011;61749;55.002;73.386;2022-08-19T11:06:58;3.90;;;1.58;;
73507;SDS011;61749;55.002;73.386;2022-08-19T11:09:24;4.00;;;1.30;;
73507;SDS011;61749;55.002;73.386;2022-08-19T11:11:51;3.75;;;1.50;;
73507;SDS011;61749;55.002;73.386;2022-08-19T11:14:18;3.60;;;1.80;;
73507;SDS011;61749;55.002;73.386;2022-08-19T11:16:46;4.85;;;1.60;;
73507;SDS011;61749;55.002;73.386;2022-08-19T11:19:12;17.30;;;1.65;;
73507;SDS011;61749;55.002;73.386;2022-08-19T11:21:40;10.63;;;1.70;;
73507;SDS011;61749;55.002;73.386;2022-08-19T11:24:08;4.88;;;1.85;;
73507;SDS011;61749;55.002;73.386;2022-08-19T11:26:34;4.45;;;1.75;;
73507;SDS011;61749;55.002;73.386;2022-08-19T11:29:09;4.53;;;1.60;;
73507;SDS011;61749;55.002;73.386;2022-08-19T11:31:44;4.30;;;1.92;;
73507;SDS011;61749;55.002;73.386;2022-08-19T11:34:18;2.42;;;1.58;;
73507;SDS011;61749;55.002;73.386;2022-08-19T11:36:44;3.15;;;1.80;;
73507;SDS011;61749;55.002;73.386;2022-08-19T11:39:17;3.22;;;1.60;;
73507;SDS011;61749;55.002;73.386;2022-08-19T11:41:44;2.55;;;1.58;;
73507;SDS011;61749;55.002;73.386;2022-08-19T11:44:14;4.95;;;1.80;;
73507;SDS011;61749;55.002;73.386;2022-08-19T11:46:41;3.60;;;1.58;;
73507;SDS011;61749;55.002;73.386;2022-08-19T11:49:10;4.30;;;1.60;;
73507;SDS011;61749;55.002;73.386;2022-08-19T11:51:36;6.68;;;1.50;;
73507;SDS011;61749;55.002;73.386;2022-08-19T11:54:13;5.35;;;1.65;;
73507;SDS011;61749;55.002;73.386;2022-08-19T11:56:39;3.88;;;1.60;;
73507;SDS011;61749;55.002;73.386;2022-08-19T11:59:06;6.63;;;1.90;;
73507;SDS011;61749;55.002;73.386;2022-08-19T12:01:32;11.05;;;1.67;;
73507;SDS011;61749;55.002;73.386;2022-08-19T12:04:03;4.78;;;1.50;;
73507;SDS011;61749;55.002;73.386;2022-08-19T12:06:40;6.28;;;1.67;;
73507;SDS011;61749;55.002;73.386;2022-08-19T12:09:07;3.17;;;1.55;;
73507;SDS011;61749;55.002;73.386;2022-08-19T12:11:34;8.27;;;1.55;;
73507;SDS011;61749;55.002;73.386;2022-08-19T12:14:13;2.22;;;1.33;;
73507;SDS011;61749;55.002;73.386;2022-08-19T12:16:45;6.88;;;1.60;;
73507;SDS011;61749;55.002;73.386;2022-08-19T12:19:11;8.77;;;1.60;;
73507;SDS011;61749;55.002;73.386;2022-08-19T12:21:38;3.60;;;1.58;;
73507;SDS011;61749;55.002;73.386;2022-08-19T12:24:05;4.72;;;1.65;;
73507;SDS011;61749;55.002;73.386;2022-08-19T12:26:32;2.65;;;1.17;;
73507;SDS011;61749;55.002;73.386;2022-08-19T12:28:58;4.35;;;1.30;;
73507;SDS011;61749;55.002;73.386;2022-08-19T12:31:25;10.82;;;1.30;;
73507;SDS011;61749;55.002;73.386;2022-08-19T12:34:01;12.00;;;1.70;;
73507;SDS011;61749;55.002;73.386;2022-08-19T12:36:27;7.45;;;1.65;;
73507;SDS011;61749;55.002;73.386;2022-08-19T12:38:53;5.25;;;1.45;;
73507;SDS011;61749;55.002;73.386;2022-08-19T12:41:19;3.10;;;1.40;;
73507;SDS011;61749;55.002;73.386;2022-08-19T12:43:46;3.85;;;1.25;;
73507;SDS011;61749;55.002;73.386;2022-08-19T12:46:14;3.80;;;1.40;;
73507;SDS011;61749;55.002;73.386;2022-08-19T12:48:44;7.00;;;1.50;;
73507;SDS011;61749;55.002;73.386;2022-08-19T12:51:15;3.75;;;1.52;;
73507;SDS011;61749;55.002;73.386;2022-08-19T12:53:41;17.33;;;1.50;;
73507;SDS011;61749;55.002;73.386;2022-08-19T12:56:08;17.42;;;1.55;;
73507;SDS011;61749;55.002;73.386;2022-08-19T12:58:43;3.83;;;1.60;;
73507;SDS011;61749;55.002;73.386;2022-08-19T13:01:15;7.25;;;1.25;;
73507;SDS011;61749;55.002;73.386;2022-08-19T13:03:41;2.60;;;1.27;;
73507;SDS011;61749;55.002;73.386;2022-08-19T13:06:08;6.55;;;1.70;;
73507;SDS011;61749;55.002;73.386;2022-08-19T13:08:34;8.55;;;1.35;;
73507;SDS011;61749;55.002;73.386;2022-08-19T13:11:11;6.07;;;1.50;;
73507;SDS011;61749;55.002;73.386;2022-08-19T13:13:43;4.55;;;1.48;;
73507;SDS011;61749;55.002;73.386;2022-08-19T13:16:15;2.58;;;1.45;;
73507;SDS011;61749;55.002;73.386;2022-08-19T13:18:46;4.43;;;1.40;;
73507;SDS011;61749;55.002;73.386;2022-08-19T13:21:12;2.67;;;1.15;;
73507;SDS011;61749;55.002;73.386;2022-08-19T13:23:43;4.10;;;1.77;;
73507;SDS011;61749;55.002;73.386;2022-08-19T13:26:11;2.83;;;1.33;;
73507;SDS011;61749;55.002;73.386;2022-08-19T13:28:38;3.70;;;1.27;;
73507;SDS011;61749;55.002;73.386;2022-08-19T13:31:23;4.82;;;1.33;;
73507;SDS011;61749;55.002;73.386;2022-08-19T13:34:14;4.43;;;1.13;;
73507;SDS011;61749;55.002;73.386;2022-08-19T13:36:48;3.33;;;1.10;;
73507;SDS011;61749;55.002;73.386;2022-08-19T13:39:14;1.90;;;1.20;;
73507;SDS011;61749;55.002;73.386;2022-08-19T13:41:43;2.60;;;1.30;;
73507;SDS011;61749;55.002;73.386;2022-08-19T13:44:09;6.07;;;1.37;;
73507;SDS011;61749;55.002;73.386;2022-08-19T13:46:35;2.55;;;1.35;;
73507;SDS011;61749;55.002;73.386;2022-08-19T13:49:02;6.35;;;1.65;;
73507;SDS011;61749;55.002;73.386;2022-08-19T13:51:29;14.30;;;1.42;;
73507;SDS011;61749;55.002;73.386;2022-08-19T13:54:02;5.22;;;1.30;;
73507;SDS011;61749;55.002;73.386;2022-08-19T13:56:28;8.98;;;1.40;;
73507;SDS011;61749;55.002;73.386;2022-08-19T13:58:54;4.50;;;1.48;;
73507;SDS011;61749;55.002;73.386;2022-08-19T14:01:22;5.93;;;1.40;;
73507;SDS011;61749;55.002;73.386;2022-08-19T14:03:58;8.10;;;1.57;;
73507;SDS011;61749;55.002;73.386;2022-08-19T14:06:24;5.22;;;1.52;;
73507;SDS011;61749;55.002;73.386;2022-08-19T14:08:50;6.75;;;1.70;;
73507;SDS011;61749;55.002;73.386;2022-08-19T14:11:17;4.95;;;1.30;;
73507;SDS011;61749;55.002;73.386;2022-08-19T14:13:42;6.05;;;1.20;;
73507;SDS011;61749;55.002;73.386;2022-08-19T14:16:18;13.25;;;1.40;;
73507;SDS011;61749;55.002;73.386;2022-08-19T14:18:43;5.88;;;1.40;;
73507;SDS011;61749;55.002;73.386;2022-08-19T14:21:17;6.40;;;1.60;;
73507;SDS011;61749;55.002;73.386;2022-08-19T14:23:43;5.20;;;1.42;;
73507;SDS011;61749;55.002;73.386;2022-08-19T14:26:11;12.55;;;1.60;;
73507;SDS011;61749;55.002;73.386;2022-08-19T14:28:37;3.63;;;1.40;;
73507;SDS011;61749;55.002;73.386;2022-08-19T14:31:10;2.80;;;1.30;;
73507;SDS011;61749;55.002;73.386;2022-08-19T14:33:36;2.87;;;1.60;;
73507;SDS011;61749;55.002;73.386;2022-08-19T14:36:03;2.05;;;1.30;;
73507;SDS011;61749;55.002;73.386;2022-08-19T14:38:28;3.80;;;1.50;;
73507;SDS011;61749;55.002;73.386;2022-08-19T14:41:06;2.70;;;1.52;;
73507;SDS011;61749;55.002;73.386;2022-08-19T14:43:33;2.40;;;1.45;;
73507;SDS011;61749;55.002;73.386;2022-08-19T14:46:09;4.65;;;1.42;;
73507;SDS011;61749;55.002;73.386;2022-08-19T14:48:35;4.50;;;1.70;;
73507;SDS011;61749;55.002;73.386;2022-08-19T14:51:03;4.10;;;1.27;;
73507;SDS011;61749;55.002;73.386;2022-08-19T14:53:29;4.70;;;1.58;;
73507;SDS011;61749;55.002;73.386;2022-08-19T14:55:55;3.38;;;1.48;;
73507;SDS011;61749;55.002;73.386;2022-08-19T14:58:29;3.55;;;1.50;;
73507;SDS011;61749;55.002;73.386;2022-08-19T15:01:00;3.17;;;1.58;;
73507;SDS011;61749;55.002;73.386;2022-08-19T15:03:26;6.43;;;2.05;;
73507;SDS011;61749;55.002;73.386;2022-08-19T15:05:52;2.65;;;1.70;;